createdAt,value
2023-04-27T00:00:53.431Z,0.00
2023-04-27T00:01:53.423Z,0.00
2023-04-27T00:02:53.612Z,0.00
2023-04-27T00:03:53.554Z,0.00
2023-04-27T00:05:53.446Z,0.00
2023-04-27T00:06:53.384Z,0.00
2023-04-27T00:07:53.367Z,0.00
2023-04-27T00:08:53.344Z,0.00
2023-04-27T00:09:53.386Z,0.00
2023-04-27T00:10:53.335Z,0.00
2023-04-27T00:11:53.295Z,0.00
2023-04-27T00:12:53.300Z,0.00
2023-04-27T00:13:53.294Z,0.00
2023-04-27T00:14:53.292Z,0.00
2023-04-27T00:15:53.283Z,0.00
2023-04-27T00:16:53.374Z,0.00
2023-04-27T00:17:53.312Z,0.00
2023-04-27T00:18:53.213Z,0.00
2023-04-27T00:19:53.209Z,0.00
2023-04-27T00:20:53.213Z,0.00
2023-04-27T00:21:53.183Z,0.00
2023-04-27T00:22:53.191Z,0.00
2023-04-27T00:23:53.166Z,0.00
2023-04-27T00:24:53.167Z,0.00
2023-04-27T00:25:53.171Z,0.00
2023-04-27T00:26:53.157Z,0.00
2023-04-27T00:27:53.140Z,0.00
2023-04-27T00:28:53.114Z,0.00
2023-04-27T00:29:53.092Z,0.00
2023-04-27T00:30:53.100Z,0.00
2023-04-27T00:31:53.128Z,0.00
2023-04-27T00:32:53.088Z,0.00
2023-04-27T00:33:53.078Z,0.00
2023-04-27T00:34:53.048Z,0.00
2023-04-27T00:35:53.042Z,0.00
2023-04-27T00:36:53.052Z,0.00
2023-04-27T00:37:53.014Z,0.00
2023-04-27T00:38:53.007Z,0.00
2023-04-27T00:39:53.002Z,0.00
2023-04-27T00:40:59.638Z,0.00
2023-04-27T00:41:52.970Z,0.00
2023-04-27T00:42:53.019Z,0.00
2023-04-27T00:43:52.963Z,0.00
2023-04-27T00:44:52.936Z,0.00
2023-04-27T00:45:52.993Z,0.00
2023-04-27T00:46:52.917Z,0.00
2023-04-27T00:47:52.981Z,0.00
2023-04-27T00:48:52.891Z,0.00
2023-04-27T00:49:52.868Z,0.00
2023-04-27T00:50:52.877Z,0.00
2023-04-27T00:51:52.868Z,0.00
2023-04-27T00:52:52.858Z,0.00
2023-04-27T00:53:52.830Z,0.00
2023-04-27T00:54:52.843Z,0.00
2023-04-27T00:55:52.815Z,0.00
2023-04-27T00:56:52.802Z,0.00
2023-04-27T00:57:52.793Z,0.00
2023-04-27T00:58:52.816Z,0.00
2023-04-27T00:59:52.788Z,0.00
2023-04-27T01:00:52.859Z,0.00
2023-04-27T01:01:52.769Z,0.00
2023-04-27T01:02:52.998Z,0.00
2023-04-27T01:03:53.014Z,0.00
2023-04-27T01:04:53.473Z,0.00
2023-04-27T01:05:54.681Z,0.00
2023-04-27T01:06:52.929Z,0.00
2023-04-27T01:07:53.005Z,0.00
2023-04-27T01:08:53.128Z,0.00
2023-04-27T01:09:52.683Z,0.00
2023-04-27T01:10:52.665Z,0.00
2023-04-27T01:11:52.631Z,0.00
2023-04-27T01:12:52.650Z,0.00
2023-04-27T01:13:52.630Z,0.00
2023-04-27T01:14:52.630Z,0.00
2023-04-27T01:15:52.600Z,0.00
2023-04-27T01:16:52.713Z,0.00
2023-04-27T01:17:52.660Z,0.00
2023-04-27T01:18:52.557Z,0.00
2023-04-27T01:19:52.538Z,0.00
2023-04-27T01:20:52.558Z,0.00
2023-04-27T01:21:52.530Z,0.00
2023-04-27T01:22:52.513Z,0.00
2023-04-27T01:23:52.513Z,0.00
2023-04-27T01:24:52.514Z,0.00
2023-04-27T01:25:52.493Z,0.00
2023-04-27T01:26:52.465Z,0.00
2023-04-27T01:27:52.450Z,0.00
2023-04-27T01:28:52.463Z,0.00
2023-04-27T01:29:52.429Z,0.00
2023-04-27T01:30:52.468Z,0.00
2023-04-27T01:31:52.429Z,0.00
2023-04-27T01:32:52.434Z,0.00
2023-04-27T01:33:52.402Z,0.00
2023-04-27T01:34:52.413Z,0.00
2023-04-27T01:35:52.389Z,0.00
2023-04-27T01:36:52.383Z,0.00
2023-04-27T01:37:52.352Z,0.00
2023-04-27T01:38:52.358Z,0.00
2023-04-27T01:39:52.331Z,0.00
2023-04-27T01:40:52.338Z,0.00
2023-04-27T01:41:52.332Z,0.00
2023-04-27T01:42:52.323Z,0.00
2023-04-27T01:43:52.281Z,0.00
2023-04-27T01:44:52.275Z,0.00
2023-04-27T01:45:52.287Z,0.00
2023-04-27T01:46:52.276Z,0.00
2023-04-27T01:47:52.285Z,0.00
2023-04-27T01:48:52.275Z,0.00
2023-04-27T01:49:52.236Z,0.00
2023-04-27T01:50:52.230Z,0.00
2023-04-27T01:51:52.209Z,0.00
2023-04-27T01:52:52.203Z,0.00
2023-04-27T01:53:52.191Z,0.00
2023-04-27T01:54:52.182Z,0.00
2023-04-27T01:55:52.153Z,0.00
2023-04-27T01:56:52.164Z,0.00
2023-04-27T01:57:52.136Z,0.00
2023-04-27T01:58:52.155Z,0.00
2023-04-27T01:59:52.118Z,0.00
2023-04-27T02:00:52.114Z,0.00
2023-04-27T02:01:52.141Z,0.00
2023-04-27T02:02:52.157Z,0.00
2023-04-27T02:03:52.240Z,0.00
2023-04-27T02:04:52.210Z,0.00
2023-04-27T02:05:52.049Z,0.00
2023-04-27T02:06:52.047Z,0.00
2023-04-27T02:07:52.028Z,0.00
2023-04-27T02:08:52.045Z,0.00
2023-04-27T02:09:52.022Z,0.00
2023-04-27T02:10:52.030Z,0.00
2023-04-27T02:11:51.983Z,0.00
2023-04-27T02:12:52.025Z,0.00
2023-04-27T02:13:51.980Z,0.00
2023-04-27T02:14:51.964Z,0.00
2023-04-27T02:15:52.010Z,0.00
2023-04-27T02:16:51.931Z,0.00
2023-04-27T02:17:51.980Z,0.00
2023-04-27T02:18:51.930Z,0.00
2023-04-27T02:19:51.932Z,0.00
2023-04-27T02:20:51.887Z,0.00
2023-04-27T02:21:51.882Z,0.00
2023-04-27T02:22:51.868Z,0.00
2023-04-27T02:23:51.850Z,0.00
2023-04-27T02:24:51.864Z,0.00
2023-04-27T02:25:51.838Z,0.00
2023-04-27T02:26:51.846Z,0.00
2023-04-27T02:27:51.821Z,0.00
2023-04-27T02:28:51.803Z,0.00
2023-04-27T02:29:51.790Z,0.00
2023-04-27T02:30:51.796Z,0.00
2023-04-27T02:31:51.829Z,0.00
2023-04-27T02:32:51.848Z,0.00
2023-04-27T02:33:51.754Z,0.00
2023-04-27T02:34:51.758Z,0.00
2023-04-27T02:35:51.753Z,0.00
2023-04-27T02:36:51.749Z,0.00
2023-04-27T02:37:51.718Z,0.00
2023-04-27T02:38:51.712Z,0.00
2023-04-27T02:39:51.715Z,0.00
2023-04-27T02:40:51.685Z,0.00
2023-04-27T02:41:51.676Z,0.00
2023-04-27T02:42:51.694Z,0.00
2023-04-27T02:43:51.663Z,0.00
2023-04-27T02:44:51.643Z,0.00
2023-04-27T02:45:51.621Z,0.00
2023-04-27T02:46:51.677Z,0.00
2023-04-27T02:47:51.635Z,0.00
2023-04-27T02:48:51.594Z,0.00
2023-04-27T02:49:51.637Z,0.00
2023-04-27T02:50:51.623Z,0.00
2023-04-27T02:51:51.554Z,0.00
2023-04-27T02:52:51.564Z,0.00
2023-04-27T02:53:51.549Z,0.00
2023-04-27T02:54:51.531Z,0.00
2023-04-27T02:55:51.531Z,0.00
2023-04-27T02:56:51.530Z,0.00
2023-04-27T02:57:51.492Z,0.00
2023-04-27T02:58:51.493Z,0.00
2023-04-27T02:59:51.473Z,0.00
2023-04-27T03:00:51.509Z,0.00
2023-04-27T03:01:51.454Z,0.00
2023-04-27T03:02:51.574Z,0.00
2023-04-27T03:03:51.542Z,0.00
2023-04-27T03:04:51.533Z,0.00
2023-04-27T03:05:51.393Z,0.00
2023-04-27T03:06:51.432Z,0.00
2023-04-27T03:07:51.397Z,0.00
2023-04-27T03:08:51.362Z,0.00
2023-04-27T03:09:51.348Z,0.00
2023-04-27T03:10:51.356Z,0.00
2023-04-27T03:11:51.366Z,0.00
2023-04-27T03:12:51.338Z,0.00
2023-04-27T03:13:51.327Z,0.00
2023-04-27T03:14:51.291Z,0.00
2023-04-27T03:15:51.297Z,0.00
2023-04-27T03:16:51.390Z,0.00
2023-04-27T03:17:51.331Z,0.00
2023-04-27T03:18:51.264Z,0.00
2023-04-27T03:19:51.240Z,0.00
2023-04-27T03:20:51.246Z,0.00
2023-04-27T03:21:51.224Z,0.00
2023-04-27T03:22:51.235Z,0.00
2023-04-27T03:23:51.217Z,0.00
2023-04-27T03:24:51.209Z,0.00
2023-04-27T03:25:51.176Z,0.00
2023-04-27T03:26:51.185Z,0.00
2023-04-27T03:27:51.173Z,0.00
2023-04-27T03:28:51.144Z,0.00
2023-04-27T03:29:51.137Z,0.00
2023-04-27T03:30:51.138Z,0.00
2023-04-27T03:31:51.184Z,0.00
2023-04-27T03:32:51.210Z,0.00
2023-04-27T03:33:51.104Z,0.00
2023-04-27T03:34:51.102Z,0.00
2023-04-27T03:35:51.058Z,0.00
2023-04-27T03:36:51.094Z,0.00
2023-04-27T03:37:51.053Z,0.00
2023-04-27T03:38:51.027Z,0.00
2023-04-27T03:39:51.043Z,0.00
2023-04-27T03:40:51.049Z,0.00
2023-04-27T03:41:51.021Z,0.00
2023-04-27T03:42:51.001Z,0.00
2023-04-27T03:43:50.991Z,0.00
2023-04-27T03:44:50.991Z,0.00
2023-04-27T03:45:51.011Z,0.00
2023-04-27T03:46:50.962Z,0.00
2023-04-27T03:47:50.942Z,0.00
2023-04-27T03:48:50.955Z,0.00
2023-04-27T03:49:50.931Z,0.00
2023-04-27T03:50:51.013Z,0.00
2023-04-27T03:51:50.882Z,0.00
2023-04-27T03:52:50.906Z,0.00
2023-04-27T03:53:50.866Z,0.00
2023-04-27T03:54:50.886Z,0.00
2023-04-27T03:55:50.848Z,0.00
2023-04-27T03:56:50.851Z,0.00
2023-04-27T03:57:50.842Z,0.00
2023-04-27T03:58:50.820Z,0.00
2023-04-27T03:59:50.805Z,0.00
2023-04-27T04:00:50.795Z,0.00
2023-04-27T04:01:50.849Z,0.00
2023-04-27T04:02:50.871Z,0.00
2023-04-27T04:03:50.869Z,0.00
2023-04-27T04:04:50.836Z,0.00
2023-04-27T04:05:50.739Z,0.00
2023-04-27T04:06:50.734Z,0.00
2023-04-27T04:07:50.721Z,0.00
2023-04-27T04:08:50.724Z,0.00
2023-04-27T04:09:50.722Z,0.00
2023-04-27T04:10:50.767Z,0.00
2023-04-27T04:11:50.672Z,0.00
2023-04-27T04:12:50.686Z,0.00
2023-04-27T04:13:50.666Z,0.00
2023-04-27T04:14:50.696Z,0.00
2023-04-27T04:15:50.644Z,0.00
2023-04-27T04:16:50.636Z,0.00
2023-04-27T04:17:50.642Z,0.00
2023-04-27T04:18:50.601Z,0.00
2023-04-27T04:19:50.580Z,0.00
2023-04-27T04:20:50.637Z,0.00
2023-04-27T04:21:50.589Z,0.00
2023-04-27T04:22:50.556Z,0.00
2023-04-27T04:23:50.555Z,0.00
2023-04-27T04:24:50.564Z,0.00
2023-04-27T04:25:50.558Z,0.00
2023-04-27T04:26:50.530Z,0.00
2023-04-27T04:27:50.507Z,0.00
2023-04-27T04:28:50.536Z,0.00
2023-04-27T04:29:50.495Z,0.00
2023-04-27T04:30:50.486Z,0.00
2023-04-27T04:31:50.570Z,0.00
2023-04-27T04:32:50.492Z,0.00
2023-04-27T04:33:50.470Z,0.00
2023-04-27T04:34:50.424Z,0.00
2023-04-27T04:35:50.444Z,0.00
2023-04-27T04:36:50.433Z,0.00
2023-04-27T04:37:50.399Z,0.00
2023-04-27T04:38:50.382Z,0.00
2023-04-27T04:39:50.368Z,0.00
2023-04-27T04:40:50.387Z,0.00
2023-04-27T04:41:50.371Z,0.00
2023-04-27T04:42:50.339Z,0.00
2023-04-27T04:43:50.322Z,0.00
2023-04-27T04:44:50.317Z,0.00
2023-04-27T04:45:50.300Z,0.00
2023-04-27T04:46:50.427Z,0.00
2023-04-27T04:47:50.328Z,0.00
2023-04-27T04:48:51.648Z,0.00
2023-04-27T04:49:50.287Z,0.00
2023-04-27T04:50:50.305Z,0.00
2023-04-27T04:51:50.277Z,0.00
2023-04-27T04:52:50.224Z,4.00
2023-04-27T04:53:50.236Z,4.00
2023-04-27T04:54:50.223Z,4.00
2023-04-27T04:55:50.223Z,4.00
2023-04-27T04:56:50.213Z,4.00
2023-04-27T04:57:50.214Z,4.00
2023-04-27T04:58:50.176Z,4.00
2023-04-27T04:59:50.191Z,0.00
2023-04-27T05:00:50.167Z,0.00
2023-04-27T05:01:50.204Z,0.00
2023-04-27T05:02:50.378Z,0.00
2023-04-27T05:03:50.330Z,0.00
2023-04-27T05:04:50.205Z,0.00
2023-04-27T05:05:50.090Z,0.00
2023-04-27T05:06:50.091Z,0.00
2023-04-27T05:07:50.093Z,0.00
2023-04-27T05:08:50.082Z,0.00
2023-04-27T05:09:50.082Z,0.00
2023-04-27T05:10:50.044Z,4.00
2023-04-27T05:11:50.038Z,4.00
2023-04-27T05:12:50.038Z,4.00
2023-04-27T05:13:50.006Z,4.00
2023-04-27T05:14:49.994Z,4.00
2023-04-27T05:15:50.028Z,4.00
2023-04-27T05:16:49.981Z,4.00
2023-04-27T05:17:50.010Z,4.00
2023-04-27T05:18:49.971Z,4.00
2023-04-27T05:19:49.950Z,4.00
2023-04-27T05:20:49.990Z,4.00
2023-04-27T05:21:49.921Z,4.00
2023-04-27T05:22:49.920Z,4.00
2023-04-27T05:23:49.915Z,4.00
2023-04-27T05:24:49.900Z,0.00
2023-04-27T05:25:49.876Z,0.00
2023-04-27T05:26:49.878Z,0.00
2023-04-27T05:27:49.856Z,0.00
2023-04-27T05:28:49.875Z,4.00
2023-04-27T05:29:49.849Z,4.00
2023-04-27T05:30:49.837Z,4.00
2023-04-27T05:31:49.867Z,4.00
2023-04-27T05:32:49.860Z,4.00
2023-04-27T05:33:49.797Z,4.00
2023-04-27T05:34:49.815Z,4.00
2023-04-27T05:35:49.781Z,4.00
2023-04-27T05:36:49.771Z,0.00
2023-04-27T05:37:49.763Z,4.00
2023-04-27T05:38:49.761Z,4.00
2023-04-27T05:39:49.746Z,4.00
2023-04-27T05:40:49.751Z,4.00
2023-04-27T05:41:49.722Z,4.00
2023-04-27T05:42:49.697Z,4.00
2023-04-27T05:43:49.696Z,4.00
2023-04-27T05:44:49.688Z,4.00
2023-04-27T05:45:49.713Z,4.00
2023-04-27T05:46:49.663Z,4.00
2023-04-27T05:47:49.725Z,4.00
2023-04-27T05:48:49.639Z,4.00
2023-04-27T05:49:49.613Z,8.00
2023-04-27T05:50:49.623Z,8.00
2023-04-27T05:51:49.594Z,8.00
2023-04-27T05:52:49.600Z,4.00
2023-04-27T05:53:49.602Z,4.00
2023-04-27T05:54:49.558Z,4.00
2023-04-27T05:55:49.568Z,8.00
2023-04-27T05:56:49.533Z,4.00
2023-04-27T05:57:57.166Z,4.00
2023-04-27T05:58:50.520Z,8.00
2023-04-27T05:59:49.524Z,8.00
2023-04-27T06:00:49.510Z,8.00
2023-04-27T06:01:49.528Z,8.00
2023-04-27T06:02:49.619Z,8.00
2023-04-27T06:03:49.569Z,4.00
2023-04-27T06:04:49.494Z,4.00
2023-04-27T06:05:49.477Z,8.00
2023-04-27T06:06:49.450Z,4.00
2023-04-27T06:07:49.437Z,4.00
2023-04-27T06:08:49.415Z,4.00
2023-04-27T06:09:49.424Z,4.00
2023-04-27T06:10:49.400Z,4.00
2023-04-27T06:11:49.412Z,4.00
2023-04-27T06:12:49.372Z,8.00
2023-04-27T06:13:49.357Z,8.00
2023-04-27T06:14:49.356Z,4.00
2023-04-27T06:15:49.376Z,4.00
2023-04-27T06:16:49.323Z,4.00
2023-04-27T06:17:49.331Z,4.00
2023-04-27T06:18:49.342Z,4.00
2023-04-27T06:19:49.335Z,4.00
2023-04-27T06:20:49.285Z,8.00
2023-04-27T06:21:49.275Z,8.00
2023-04-27T06:22:49.266Z,8.00
2023-04-27T06:23:49.258Z,8.00
2023-04-27T06:24:49.249Z,8.00
2023-04-27T06:25:49.250Z,4.00
2023-04-27T06:26:49.210Z,4.00
2023-04-27T06:27:49.225Z,8.00
2023-04-27T06:28:49.189Z,8.00
2023-04-27T06:29:49.198Z,8.00
2023-04-27T06:30:49.197Z,8.00
2023-04-27T06:31:49.179Z,8.00
2023-04-27T06:32:49.179Z,8.00
2023-04-27T06:33:49.150Z,8.00
2023-04-27T06:34:49.136Z,8.00
2023-04-27T06:35:49.130Z,8.00
2023-04-27T06:36:49.100Z,8.00
2023-04-27T06:37:49.119Z,8.00
2023-04-27T06:38:49.093Z,8.00
2023-04-27T06:39:49.089Z,12.00
2023-04-27T06:40:49.068Z,12.00
2023-04-27T06:41:49.053Z,8.00
2023-04-27T06:42:49.054Z,8.00
2023-04-27T06:43:49.048Z,8.00
2023-04-27T06:44:49.041Z,8.00
2023-04-27T06:45:49.105Z,8.00
2023-04-27T06:46:49.057Z,8.00
2023-04-27T06:47:49.034Z,8.00
2023-04-27T06:48:48.988Z,8.00
2023-04-27T06:49:49.853Z,8.00
2023-04-27T06:50:48.958Z,8.00
2023-04-27T06:51:48.945Z,8.00
2023-04-27T06:52:48.946Z,12.00
2023-04-27T06:53:48.947Z,12.00
2023-04-27T06:54:48.907Z,8.00
2023-04-27T06:55:48.919Z,8.00
2023-04-27T06:56:48.899Z,8.00
2023-04-27T06:57:48.893Z,8.00
2023-04-27T06:58:48.861Z,8.00
2023-04-27T06:59:48.876Z,8.00
2023-04-27T07:00:48.853Z,12.00
2023-04-27T07:01:48.851Z,12.00
2023-04-27T07:02:48.897Z,8.00
2023-04-27T07:03:48.939Z,8.00
2023-04-27T07:04:48.877Z,12.00
2023-04-27T07:05:48.811Z,8.00
2023-04-27T07:06:48.777Z,8.00
2023-04-27T07:07:48.777Z,8.00
2023-04-27T07:08:48.755Z,8.00
2023-04-27T07:09:48.747Z,8.00
2023-04-27T07:10:48.745Z,8.00
2023-04-27T07:11:48.751Z,12.00
2023-04-27T07:12:48.708Z,12.00
2023-04-27T07:13:48.728Z,8.00
2023-04-27T07:14:48.688Z,8.00
2023-04-27T07:15:48.717Z,12.00
2023-04-27T07:16:48.687Z,8.00
2023-04-27T07:17:48.699Z,8.00
2023-04-27T07:18:48.670Z,8.00
2023-04-27T07:19:48.674Z,8.00
2023-04-27T07:20:48.617Z,8.00
2023-04-27T07:21:48.781Z,8.00
2023-04-27T07:22:48.632Z,8.00
2023-04-27T07:23:48.625Z,8.00
2023-04-27T07:24:48.605Z,8.00
2023-04-27T07:25:48.595Z,8.00
2023-04-27T07:26:48.561Z,8.00
2023-04-27T07:27:48.552Z,8.00
2023-04-27T07:28:48.550Z,8.00
2023-04-27T07:29:48.558Z,12.00
2023-04-27T07:30:48.532Z,8.00
2023-04-27T07:31:49.386Z,116.00
2023-04-27T07:32:48.500Z,132.00
2023-04-27T07:33:48.493Z,120.00
2023-04-27T07:34:53.286Z,136.00
2023-04-27T07:35:49.456Z,136.00
2023-04-27T07:36:48.448Z,112.00
2023-04-27T07:37:48.441Z,112.00
2023-04-27T07:38:48.440Z,108.00
2023-04-27T07:39:48.448Z,104.00
2023-04-27T07:40:48.421Z,104.00
2023-04-27T07:41:48.407Z,116.00
2023-04-27T07:42:48.379Z,176.00
2023-04-27T07:43:48.368Z,116.00
2023-04-27T07:44:48.361Z,104.00
2023-04-27T07:45:48.396Z,108.00
2023-04-27T07:46:48.329Z,100.00
2023-04-27T07:47:48.375Z,108.00
2023-04-27T07:48:48.304Z,112.00
2023-04-27T07:49:48.318Z,116.00
2023-04-27T07:50:48.285Z,112.00
2023-04-27T07:51:48.309Z,116.00
2023-04-27T07:52:48.316Z,108.00
2023-04-27T07:53:48.263Z,116.00
2023-04-27T07:54:48.264Z,144.00
2023-04-27T07:55:48.247Z,164.00
2023-04-27T07:56:48.219Z,132.00
2023-04-27T07:57:48.216Z,224.00
2023-04-27T07:58:48.256Z,108.00
2023-04-27T07:59:48.196Z,108.00
2023-04-27T08:00:48.193Z,108.00
2023-04-27T08:01:48.278Z,100.00
2023-04-27T08:02:48.431Z,92.00
2023-04-27T08:03:48.518Z,100.00
2023-04-27T08:04:48.711Z,112.00
2023-04-27T08:05:48.377Z,260.00
2023-04-27T08:06:48.627Z,252.00
2023-04-27T08:07:48.296Z,112.00
2023-04-27T08:08:48.092Z,124.00
2023-04-27T08:09:48.116Z,132.00
2023-04-27T08:10:48.120Z,192.00
2023-04-27T08:11:48.116Z,160.00
2023-04-27T08:12:48.060Z,232.00
2023-04-27T08:13:48.060Z,260.00
2023-04-27T08:14:48.034Z,260.00
2023-04-27T08:15:48.030Z,260.00
2023-04-27T08:16:48.071Z,256.00
2023-04-27T08:17:48.038Z,260.00
2023-04-27T08:18:48.016Z,268.00
2023-04-27T08:19:48.029Z,236.00
2023-04-27T08:20:47.966Z,280.00
2023-04-27T08:21:47.981Z,172.00
2023-04-27T08:22:47.948Z,188.00
2023-04-27T08:23:47.923Z,156.00
2023-04-27T08:24:47.932Z,128.00
2023-04-27T08:25:47.927Z,136.00
2023-04-27T08:26:47.889Z,132.00
2023-04-27T08:27:47.900Z,84.00
2023-04-27T08:28:47.907Z,80.00
2023-04-27T08:29:47.859Z,72.00
2023-04-27T08:30:47.891Z,80.00
2023-04-27T08:31:47.977Z,228.00
2023-04-27T08:32:47.976Z,80.00
2023-04-27T08:33:47.828Z,88.00
2023-04-27T08:34:47.833Z,96.00
2023-04-27T08:35:47.882Z,272.00
2023-04-27T08:36:47.795Z,104.00
2023-04-27T08:37:47.785Z,72.00
2023-04-27T08:38:47.766Z,60.00
2023-04-27T08:39:47.767Z,56.00
2023-04-27T08:40:47.747Z,52.00
2023-04-27T08:41:47.732Z,48.00
2023-04-27T08:42:47.716Z,44.00
2023-04-27T08:43:47.724Z,48.00
2023-04-27T08:44:47.705Z,48.00
2023-04-27T08:45:47.704Z,56.00
2023-04-27T08:46:47.792Z,72.00
2023-04-27T08:47:47.713Z,84.00
2023-04-27T08:48:47.657Z,100.00
2023-04-27T08:49:48.011Z,120.00
2023-04-27T08:50:49.000Z,172.00
2023-04-27T08:51:47.629Z,324.00
2023-04-27T08:52:57.995Z,136.00
2023-04-27T08:53:47.952Z,120.00
2023-04-27T08:54:47.663Z,108.00
2023-04-27T08:55:47.570Z,96.00
2023-04-27T08:56:47.569Z,88.00
2023-04-27T08:57:47.567Z,76.00
2023-04-27T08:58:47.551Z,68.00
2023-04-27T08:59:47.629Z,68.00
2023-04-27T09:00:47.542Z,68.00
2023-04-27T09:01:47.549Z,68.00
2023-04-27T09:02:47.789Z,68.00
2023-04-27T09:03:47.625Z,64.00
2023-04-27T09:04:47.636Z,72.00
2023-04-27T09:06:00.649Z,80.00
2023-04-27T09:06:48.514Z,84.00
2023-04-27T09:07:47.456Z,80.00
2023-04-27T09:08:47.452Z,68.00
2023-04-27T09:09:47.446Z,64.00
2023-04-27T09:10:47.632Z,56.00
2023-04-27T09:11:47.400Z,52.00
2023-04-27T09:12:47.467Z,52.00
2023-04-27T09:13:47.407Z,48.00
2023-04-27T09:14:47.374Z,52.00
2023-04-27T09:15:48.530Z,48.00
2023-04-27T09:16:47.381Z,48.00
2023-04-27T09:17:48.072Z,44.00
2023-04-27T09:18:47.352Z,44.00
2023-04-27T09:19:47.333Z,44.00
2023-04-27T09:20:47.318Z,44.00
2023-04-27T09:21:47.797Z,44.00
2023-04-27T09:22:47.303Z,44.00
2023-04-27T09:23:47.277Z,48.00
2023-04-27T09:24:47.293Z,52.00
2023-04-27T09:25:47.263Z,56.00
2023-04-27T09:26:47.241Z,60.00
2023-04-27T09:27:47.220Z,68.00
2023-04-27T09:28:47.224Z,68.00
2023-04-27T09:29:47.214Z,72.00
2023-04-27T09:30:47.239Z,76.00
2023-04-27T09:31:47.250Z,84.00
2023-04-27T09:32:47.224Z,92.00
2023-04-27T09:33:47.165Z,96.00
2023-04-27T09:34:47.184Z,100.00
2023-04-27T09:35:47.176Z,112.00
2023-04-27T09:36:47.135Z,192.00
2023-04-27T09:37:47.111Z,200.00
2023-04-27T09:38:47.124Z,224.00
2023-04-27T09:39:47.131Z,312.00
2023-04-27T09:40:47.098Z,308.00
2023-04-27T09:41:47.111Z,300.00
2023-04-27T09:42:47.088Z,132.00
2023-04-27T09:43:47.061Z,180.00
2023-04-27T09:44:47.095Z,208.00
2023-04-27T09:45:47.060Z,172.00
2023-04-27T09:46:47.081Z,240.00
2023-04-27T09:47:47.079Z,128.00
2023-04-27T09:48:47.002Z,112.00
2023-04-27T09:49:46.982Z,100.00
2023-04-27T09:50:47.015Z,96.00
2023-04-27T09:51:46.988Z,100.00
2023-04-27T09:52:46.997Z,100.00
2023-04-27T09:53:46.946Z,100.00
2023-04-27T09:54:46.930Z,104.00
2023-04-27T09:55:46.935Z,100.00
2023-04-27T09:56:47.009Z,100.00
2023-04-27T09:57:46.910Z,96.00
2023-04-27T09:58:46.976Z,100.00
2023-04-27T09:59:46.966Z,100.00
2023-04-27T10:00:46.904Z,100.00
2023-04-27T10:01:47.109Z,100.00
2023-04-27T10:02:53.370Z,104.00
2023-04-27T10:03:47.975Z,104.00
2023-04-27T10:04:46.875Z,104.00
2023-04-27T10:05:46.809Z,104.00
2023-04-27T10:06:46.810Z,108.00
2023-04-27T10:07:46.797Z,104.00
2023-04-27T10:08:46.817Z,104.00
2023-04-27T10:09:46.837Z,100.00
2023-04-27T10:10:46.798Z,100.00
2023-04-27T10:11:46.768Z,100.00
2023-04-27T10:12:46.771Z,100.00
2023-04-27T10:13:46.767Z,96.00
2023-04-27T10:14:46.761Z,96.00
2023-04-27T10:15:46.723Z,100.00
2023-04-27T10:16:46.924Z,104.00
2023-04-27T10:17:46.718Z,128.00
2023-04-27T10:18:46.679Z,120.00
2023-04-27T10:19:46.696Z,108.00
2023-04-27T10:20:46.764Z,92.00
2023-04-27T10:21:46.654Z,120.00
2023-04-27T10:22:46.618Z,280.00
2023-04-27T10:23:46.602Z,112.00
2023-04-27T10:24:46.607Z,192.00
2023-04-27T10:25:46.648Z,280.00
2023-04-27T10:26:46.592Z,256.00
2023-04-27T10:27:46.604Z,272.00
2023-04-27T10:28:46.559Z,276.00
2023-04-27T10:29:46.546Z,268.00
2023-04-27T10:30:46.763Z,188.00
2023-04-27T10:31:46.526Z,280.00
2023-04-27T10:32:46.749Z,276.00
2023-04-27T10:33:46.509Z,288.00
2023-04-27T10:34:46.525Z,240.00
2023-04-27T10:35:46.490Z,120.00
2023-04-27T10:36:46.508Z,112.00
2023-04-27T10:37:46.470Z,280.00
2023-04-27T10:38:46.483Z,272.00
2023-04-27T10:39:49.116Z,124.00
2023-04-27T10:40:46.442Z,168.00
2023-04-27T10:41:46.443Z,264.00
2023-04-27T10:42:46.411Z,192.00
2023-04-27T10:43:46.405Z,128.00
2023-04-27T10:44:46.419Z,108.00
2023-04-27T10:45:46.388Z,104.00
2023-04-27T10:46:46.392Z,120.00
2023-04-27T10:47:46.363Z,256.00
2023-04-27T10:48:46.358Z,196.00
2023-04-27T10:49:46.363Z,236.00
2023-04-27T10:50:46.314Z,212.00
2023-04-27T10:51:46.314Z,284.00
2023-04-27T10:52:46.322Z,156.00
2023-04-27T10:53:46.336Z,288.00
2023-04-27T10:54:46.318Z,264.00
2023-04-27T10:55:46.275Z,292.00
2023-04-27T10:56:46.271Z,296.00
2023-04-27T10:57:46.251Z,268.00
2023-04-27T10:58:49.377Z,156.00
2023-04-27T10:59:46.251Z,212.00
2023-04-27T11:00:46.222Z,308.00
2023-04-27T11:01:46.555Z,352.00
2023-04-27T11:02:46.264Z,356.00
2023-04-27T11:03:46.290Z,380.00
2023-04-27T11:04:46.992Z,192.00
2023-04-27T11:05:46.340Z,172.00
2023-04-27T11:06:46.170Z,164.00
2023-04-27T11:07:46.144Z,164.00
2023-04-27T11:08:46.153Z,164.00
2023-04-27T11:09:46.119Z,172.00
2023-04-27T11:10:46.215Z,172.00
2023-04-27T11:11:46.139Z,172.00
2023-04-27T11:12:46.094Z,176.00
2023-04-27T11:13:46.091Z,184.00
2023-04-27T11:14:46.075Z,332.00
2023-04-27T11:15:46.109Z,348.00
2023-04-27T11:16:46.056Z,344.00
2023-04-27T11:17:46.102Z,344.00
2023-04-27T11:18:46.037Z,348.00
2023-04-27T11:19:46.108Z,344.00
2023-04-27T11:20:46.007Z,352.00
2023-04-27T11:21:46.028Z,360.00
2023-04-27T11:22:46.432Z,364.00
2023-04-27T11:23:46.331Z,364.00
2023-04-27T11:24:45.955Z,360.00
2023-04-27T11:25:45.949Z,360.00
2023-04-27T11:26:46.127Z,352.00
2023-04-27T11:27:46.008Z,220.00
2023-04-27T11:28:47.052Z,144.00
2023-04-27T11:29:48.536Z,132.00
2023-04-27T11:30:46.001Z,128.00
2023-04-27T11:31:47.006Z,112.00
2023-04-27T11:32:45.941Z,104.00
2023-04-27T11:33:46.097Z,96.00
2023-04-27T11:34:45.841Z,92.00
2023-04-27T11:35:46.602Z,88.00
2023-04-27T11:36:46.146Z,84.00
2023-04-27T11:37:46.413Z,84.00
2023-04-27T11:38:46.668Z,76.00
2023-04-27T11:39:46.821Z,80.00
2023-04-27T11:40:46.869Z,80.00
2023-04-27T11:41:46.356Z,76.00
2023-04-27T11:42:46.388Z,76.00
2023-04-27T11:43:46.639Z,80.00
2023-04-27T11:44:46.678Z,80.00
2023-04-27T11:45:46.214Z,80.00
2023-04-27T11:46:46.523Z,84.00
2023-04-27T11:47:46.653Z,88.00
2023-04-27T11:48:45.786Z,92.00
2023-04-27T11:49:46.845Z,100.00
2023-04-27T11:50:45.669Z,108.00
2023-04-27T11:51:45.715Z,112.00
2023-04-27T11:52:45.666Z,124.00
2023-04-27T11:53:45.653Z,144.00
2023-04-27T11:54:45.633Z,156.00
2023-04-27T11:55:45.605Z,176.00
2023-04-27T11:56:45.610Z,184.00
2023-04-27T11:57:45.623Z,248.00
2023-04-27T11:58:46.498Z,204.00
2023-04-27T11:59:45.955Z,380.00
2023-04-27T12:00:45.560Z,376.00
2023-04-27T12:01:45.565Z,196.00
2023-04-27T12:02:45.655Z,172.00
2023-04-27T12:03:45.609Z,164.00
2023-04-27T12:04:45.678Z,164.00
2023-04-27T12:05:45.562Z,144.00
2023-04-27T12:06:45.499Z,136.00
2023-04-27T12:07:45.494Z,132.00
2023-04-27T12:08:45.504Z,136.00
2023-04-27T12:09:45.501Z,132.00
2023-04-27T12:10:45.489Z,112.00
2023-04-27T12:11:45.437Z,96.00
2023-04-27T12:12:45.447Z,84.00
2023-04-27T12:13:45.486Z,72.00
2023-04-27T12:14:45.422Z,68.00
2023-04-27T12:15:46.432Z,60.00
2023-04-27T12:16:45.440Z,56.00
2023-04-27T12:17:45.394Z,52.00
2023-04-27T12:18:45.381Z,52.00
2023-04-27T12:19:45.481Z,48.00
2023-04-27T12:20:45.351Z,48.00
2023-04-27T12:21:45.341Z,52.00
2023-04-27T12:22:45.320Z,48.00
2023-04-27T12:23:45.331Z,48.00
2023-04-27T12:24:45.318Z,52.00
2023-04-27T12:25:45.277Z,60.00
2023-04-27T12:26:45.295Z,60.00
2023-04-27T12:27:45.270Z,64.00
2023-04-27T12:28:45.265Z,64.00
2023-04-27T12:29:45.258Z,64.00
2023-04-27T12:30:45.327Z,68.00
2023-04-27T12:31:45.317Z,72.00
2023-04-27T12:32:45.250Z,76.00
2023-04-27T12:33:45.204Z,80.00
2023-04-27T12:34:45.198Z,80.00
2023-04-27T12:35:45.227Z,80.00
2023-04-27T12:36:45.175Z,76.00
2023-04-27T12:37:45.553Z,76.00
2023-04-27T12:38:45.148Z,72.00
2023-04-27T12:39:45.153Z,76.00
2023-04-27T12:40:45.136Z,80.00
2023-04-27T12:41:45.136Z,84.00
2023-04-27T12:42:45.161Z,84.00
2023-04-27T12:43:45.098Z,88.00
2023-04-27T12:44:45.231Z,92.00
2023-04-27T12:45:45.079Z,100.00
2023-04-27T12:46:45.209Z,100.00
2023-04-27T12:48:01.200Z,104.00
2023-04-27T12:48:46.865Z,108.00
2023-04-27T12:49:46.445Z,116.00
2023-04-27T12:50:45.584Z,116.00
2023-04-27T12:51:45.932Z,128.00
2023-04-27T12:52:46.100Z,132.00
2023-04-27T12:53:46.302Z,128.00
2023-04-27T12:54:49.945Z,132.00
2023-04-27T12:55:45.948Z,136.00
2023-04-27T12:56:44.971Z,136.00
2023-04-27T12:57:44.945Z,144.00
2023-04-27T12:58:44.938Z,144.00
2023-04-27T12:59:44.925Z,148.00
2023-04-27T13:00:44.902Z,148.00